createdAt,value
2018-08-19T00:00:56.167Z,16.65
2018-08-19T00:03:25.598Z,16.58
2018-08-19T00:05:55.079Z,16.55
2018-08-19T00:08:24.476Z,16.52
2018-08-19T00:11:05.734Z,16.51
2018-08-19T00:13:37.096Z,16.50
2018-08-19T00:16:07.689Z,16.48
2018-08-19T00:18:37.735Z,16.44
2018-08-19T00:21:12.758Z,16.45
2018-08-19T00:23:47.570Z,16.42
2018-08-19T00:26:17.056Z,16.44
2018-08-19T00:28:47.405Z,16.43
2018-08-19T00:31:20.505Z,16.41
2018-08-19T00:33:50.354Z,16.36
2018-08-19T00:36:27.667Z,16.33
2018-08-19T00:38:57.599Z,16.31
2018-08-19T00:41:27.405Z,16.27
2018-08-19T00:43:56.855Z,16.25
2018-08-19T00:46:31.648Z,16.23
2018-08-19T00:49:01.944Z,16.23
2018-08-19T00:51:31.396Z,16.22
2018-08-19T00:54:00.785Z,16.20
2018-08-19T00:56:30.245Z,16.19
2018-08-19T00:59:00.154Z,16.20
2018-08-19T01:01:37.216Z,16.21
2018-08-19T01:04:10.301Z,16.19
2018-08-19T01:06:45.300Z,16.18
2018-08-19T01:09:14.709Z,16.18
2018-08-19T01:11:46.582Z,16.18
2018-08-19T01:14:16.439Z,16.17
2018-08-19T01:16:47.005Z,16.13
2018-08-19T01:19:18.183Z,16.13
2018-08-19T01:21:50.742Z,16.15
2018-08-19T01:24:20.155Z,16.15
2018-08-19T01:26:50.151Z,16.13
2018-08-19T01:29:32.554Z,16.09
2018-08-19T01:32:08.400Z,16.09
2018-08-19T01:34:37.860Z,16.07
2018-08-19T01:37:07.587Z,16.01
2018-08-19T01:39:38.821Z,15.96
2018-08-19T01:42:08.894Z,15.91
2018-08-19T01:44:38.436Z,15.92
2018-08-19T01:47:07.886Z,15.92
2018-08-19T01:49:38.490Z,15.93
2018-08-19T01:52:08.704Z,15.92
2018-08-19T01:54:38.151Z,15.88
2018-08-19T01:57:08.314Z,15.84
2018-08-19T01:59:38.610Z,15.82
2018-08-19T02:02:08.451Z,15.85
2018-08-19T02:04:59.117Z,15.82
2018-08-19T02:07:28.534Z,15.79
2018-08-19T02:10:02.349Z,15.82
2018-08-19T02:12:39.664Z,15.85
2018-08-19T02:15:10.030Z,15.83
2018-08-19T02:18:15.918Z,15.82
2018-08-19T02:20:45.361Z,15.78
2018-08-19T02:23:14.758Z,15.70
2018-08-19T02:25:47.447Z,15.69
2018-08-19T02:28:23.595Z,15.69
2018-08-19T02:30:57.965Z,15.71
2018-08-19T02:33:28.037Z,15.72
2018-08-19T02:36:11.789Z,15.69
2018-08-19T02:38:41.258Z,15.61
2018-08-19T02:41:10.705Z,15.55
2018-08-19T02:43:46.493Z,15.49
2018-08-19T02:46:15.900Z,15.50
2018-08-19T02:48:47.522Z,15.50
2018-08-19T02:51:18.072Z,15.51
2018-08-19T02:53:49.602Z,15.49
2018-08-19T02:56:19.825Z,15.48
2018-08-19T02:58:49.659Z,15.46
2018-08-19T03:01:19.407Z,15.45
2018-08-19T03:03:49.304Z,15.40
2018-08-19T03:06:18.702Z,15.36
2018-08-19T03:08:53.167Z,15.37
2018-08-19T03:11:23.618Z,15.36
2018-08-19T03:13:53.003Z,15.38
2018-08-19T03:16:22.885Z,15.31
2018-08-19T03:18:53.311Z,15.26
2018-08-19T03:21:23.522Z,15.23
2018-08-19T03:23:54.076Z,15.22
2018-08-19T03:26:23.524Z,15.21
2018-08-19T03:28:52.925Z,15.19
2018-08-19T03:31:22.390Z,15.17
2018-08-19T03:33:52.287Z,15.17
2018-08-19T03:36:22.619Z,15.15
2018-08-19T03:38:52.138Z,15.14
2018-08-19T03:41:21.622Z,15.16
2018-08-19T03:43:55.561Z,15.16
2018-08-19T03:46:24.932Z,15.15
2018-08-19T03:48:54.659Z,15.15
2018-08-19T03:51:24.096Z,15.15
2018-08-19T03:53:53.531Z,15.16
2018-08-19T03:56:26.911Z,15.16
2018-08-19T03:58:58.600Z,15.14
2018-08-19T04:01:38.495Z,15.13
2018-08-19T04:04:09.902Z,15.06
2018-08-19T04:06:41.292Z,15.06
2018-08-19T04:09:11.459Z,15.07
2018-08-19T04:11:40.874Z,15.07
2018-08-19T04:14:26.175Z,15.08
2018-08-19T04:16:57.420Z,15.12
2018-08-19T04:19:27.854Z,15.15
2018-08-19T04:22:01.642Z,15.15
2018-08-19T04:24:32.398Z,15.16
2018-08-19T04:27:09.933Z,15.19
2018-08-19T04:29:39.591Z,15.17
2018-08-19T04:32:19.160Z,15.19
2018-08-19T04:34:48.600Z,15.19
2018-08-19T04:37:18.000Z,15.20
2018-08-19T04:39:52.485Z,15.23
2018-08-19T04:42:22.007Z,15.31
2018-08-19T04:44:54.550Z,15.37
2018-08-19T04:47:40.395Z,15.42
2018-08-19T04:50:13.856Z,15.49
2018-08-19T04:52:43.287Z,15.58
2018-08-19T04:55:13.080Z,15.62
2018-08-19T04:57:42.503Z,15.69
2018-08-19T05:00:11.901Z,15.74
2018-08-19T05:02:42.276Z,15.80
2018-08-19T05:05:11.947Z,15.81
2018-08-19T05:07:43.525Z,15.83
2018-08-19T05:10:13.018Z,15.89
2018-08-19T05:15:21.654Z,16.05
2018-08-19T05:17:51.107Z,16.18
2018-08-19T05:20:20.559Z,16.30
2018-08-19T05:22:50.483Z,16.43
2018-08-19T05:25:19.937Z,16.51
2018-08-19T05:27:58.211Z,16.58
2018-08-19T05:30:27.672Z,16.66
2018-08-19T05:33:02.325Z,16.75
2018-08-19T05:35:32.935Z,16.83
2018-08-19T05:38:03.545Z,16.90
2018-08-19T05:40:33.731Z,16.99
2018-08-19T05:43:03.129Z,17.08
2018-08-19T05:45:32.674Z,17.17
2018-08-19T05:48:09.544Z,17.25
2018-08-19T05:50:39.371Z,17.37
2018-08-19T05:53:09.347Z,17.53
2018-08-19T05:55:39.456Z,17.69
2018-08-19T05:58:08.923Z,17.84
2018-08-19T06:00:41.436Z,18.00
2018-08-19T06:03:11.598Z,18.14
2018-08-19T06:05:43.006Z,18.26
2018-08-19T06:08:13.454Z,18.37
2018-08-19T06:10:43.378Z,18.50
2018-08-19T06:13:14.125Z,18.65
2018-08-19T06:15:43.701Z,18.77
2018-08-19T06:18:13.185Z,18.94
2018-08-19T06:20:42.876Z,19.12
2018-08-19T06:23:13.102Z,19.24
2018-08-19T06:25:43.653Z,19.36
2018-08-19T06:28:14.942Z,19.46
2018-08-19T06:30:47.896Z,19.57
2018-08-19T06:33:17.746Z,19.70
2018-08-19T06:35:47.996Z,19.83
2018-08-19T06:38:18.538Z,19.93
2018-08-19T06:40:56.239Z,19.98
2018-08-19T06:43:25.647Z,19.94
2018-08-19T06:46:03.683Z,19.91
2018-08-19T06:48:33.207Z,19.99
2018-08-19T06:51:04.369Z,20.09
2018-08-19T06:53:40.995Z,20.23
2018-08-19T06:56:11.238Z,20.40
2018-08-19T06:58:41.570Z,20.53
2018-08-19T07:01:12.666Z,20.68
2018-08-19T07:03:48.013Z,20.84
2018-08-19T07:06:19.674Z,21.02
2018-08-19T07:08:49.086Z,21.17
2018-08-19T07:11:19.966Z,21.30
2018-08-19T07:14:21.308Z,21.40
2018-08-19T07:16:50.765Z,21.63
2018-08-19T07:19:20.819Z,21.62
2018-08-19T07:21:55.942Z,21.68
2018-08-19T07:24:26.045Z,21.87
2018-08-19T07:28:11.874Z,22.00
2018-08-19T07:30:42.342Z,21.87
2018-08-19T07:33:14.918Z,21.99
2018-08-19T07:35:45.729Z,21.96
2018-08-19T07:38:17.229Z,22.03
2018-08-19T07:40:49.938Z,22.17
2018-08-19T07:43:19.939Z,22.15
2018-08-19T07:45:49.402Z,22.10
2018-08-19T07:48:19.544Z,22.15
2018-08-19T07:50:49.232Z,22.11
2018-08-19T07:53:20.095Z,22.26
2018-08-19T07:55:49.555Z,22.43
2018-08-19T07:58:35.357Z,22.45
2018-08-19T08:01:08.064Z,22.54
2018-08-19T08:03:39.454Z,22.58
2018-08-19T08:06:08.962Z,22.53
2018-08-19T08:08:42.166Z,22.62
2018-08-19T08:11:14.331Z,22.64
2018-08-19T08:13:48.390Z,22.66
2018-08-19T08:16:18.469Z,22.80
2018-08-19T08:18:49.845Z,22.83
2018-08-19T08:21:24.142Z,22.91
2018-08-19T08:23:53.478Z,23.02
2018-08-19T08:26:23.990Z,23.09
2018-08-19T08:29:00.149Z,23.20
2018-08-19T08:31:29.527Z,23.35
2018-08-19T08:34:00.699Z,23.37
2018-08-19T08:36:30.999Z,23.32
2018-08-19T08:39:02.617Z,23.36
2018-08-19T08:41:32.027Z,23.50
2018-08-19T08:44:01.846Z,23.72
2018-08-19T08:46:32.171Z,23.79
2018-08-19T08:49:04.179Z,23.77
2018-08-19T08:51:33.564Z,23.76
2018-08-19T08:54:03.487Z,23.78
2018-08-19T08:56:32.987Z,23.77
2018-08-19T08:59:02.491Z,23.86
2018-08-19T09:01:32.335Z,23.88
2018-08-19T09:04:02.110Z,23.85
2018-08-19T09:06:31.484Z,23.83
2018-08-19T09:09:01.600Z,23.69
2018-08-19T09:11:31.407Z,23.68
2018-08-19T09:14:01.649Z,23.84
2018-08-19T09:16:31.946Z,24.01
2018-08-19T09:19:02.684Z,24.08
2018-08-19T09:21:33.062Z,24.23
2018-08-19T09:24:03.964Z,24.38
2018-08-19T09:26:34.718Z,24.32
2018-08-19T09:29:07.249Z,24.17
2018-08-19T09:31:44.384Z,24.25
2018-08-19T09:34:22.104Z,24.40
2018-08-19T09:36:53.179Z,24.50
2018-08-19T09:39:23.218Z,24.46
2018-08-19T09:41:58.747Z,24.54
2018-08-19T09:44:28.826Z,24.53
2018-08-19T09:46:58.258Z,24.63
2018-08-19T09:49:27.634Z,24.64
2018-08-19T09:52:01.275Z,24.69
2018-08-19T09:54:35.371Z,24.87
2018-08-19T09:57:06.628Z,25.00
2018-08-19T09:59:51.755Z,24.94
2018-08-19T10:02:22.291Z,25.01
2018-08-19T10:04:53.684Z,25.12
2018-08-19T10:07:23.903Z,25.36
2018-08-19T10:09:53.329Z,25.41
2018-08-19T10:12:23.561Z,25.44
2018-08-19T10:14:55.028Z,25.38
2018-08-19T10:17:25.750Z,25.49
2018-08-19T10:19:55.575Z,25.57
2018-08-19T10:22:30.070Z,25.59
2018-08-19T10:25:00.463Z,25.53
2018-08-19T10:27:29.854Z,25.54
2018-08-19T10:29:59.349Z,25.59
2018-08-19T10:32:28.843Z,25.80
2018-08-19T10:34:58.832Z,25.95
2018-08-19T10:37:32.480Z,26.21
2018-08-19T10:40:01.930Z,26.41
2018-08-19T10:42:33.046Z,26.39
2018-08-19T10:45:11.542Z,26.45
2018-08-19T10:47:43.387Z,26.46
2018-08-19T10:50:17.290Z,26.34
2018-08-19T10:52:46.678Z,26.46
2018-08-19T10:55:16.515Z,26.53
2018-08-19T10:57:48.983Z,26.58
2018-08-19T11:00:22.080Z,26.66
2018-08-19T11:02:51.603Z,26.57
2018-08-19T11:05:21.509Z,26.59
2018-08-19T11:08:00.177Z,26.58
2018-08-19T11:10:32.987Z,26.56
2018-08-19T11:13:03.004Z,26.67
2018-08-19T11:15:59.292Z,26.70
2018-08-19T11:18:51.111Z,26.92
2018-08-19T11:21:27.645Z,27.04
2018-08-19T11:23:59.196Z,27.13
2018-08-19T11:26:30.387Z,27.20
2018-08-19T11:29:01.228Z,27.42
2018-08-19T11:31:37.172Z,27.47
2018-08-19T11:34:08.682Z,27.57
2018-08-19T11:36:44.905Z,27.42
2018-08-19T11:39:16.679Z,27.32
2018-08-19T11:41:46.479Z,27.39
2018-08-19T11:44:17.394Z,27.39
2018-08-19T11:46:48.208Z,27.20
2018-08-19T11:49:19.541Z,27.26
2018-08-19T11:51:51.931Z,27.53
2018-08-19T11:54:23.755Z,27.66
2018-08-19T11:57:01.155Z,27.74
2018-08-19T11:59:35.691Z,27.63
2018-08-19T12:02:10.103Z,27.64
2018-08-19T12:04:47.795Z,27.61
2018-08-19T12:07:17.596Z,27.66
2018-08-19T12:09:55.358Z,27.81
2018-08-19T12:12:40.504Z,27.73
2018-08-19T12:15:10.008Z,27.57
2018-08-19T12:17:40.974Z,27.58
2018-08-19T12:20:11.290Z,27.62
2018-08-19T12:22:44.367Z,27.56
2018-08-19T12:27:51.467Z,27.55
2018-08-19T12:30:22.055Z,27.59
2018-08-19T12:32:51.572Z,27.67
2018-08-19T12:35:21.966Z,27.85
2018-08-19T12:37:51.374Z,28.04
2018-08-19T12:40:21.896Z,28.21
2018-08-19T12:42:55.353Z,28.40
2018-08-19T12:45:27.209Z,28.38
2018-08-19T12:47:58.603Z,28.42
2018-08-19T12:50:28.035Z,28.45
2018-08-19T12:52:58.081Z,28.45
2018-08-19T12:55:31.619Z,28.57
2018-08-19T12:58:06.491Z,28.55
2018-08-19T13:00:36.534Z,28.49
2018-08-19T13:03:08.007Z,28.46
2018-08-19T13:05:51.996Z,28.33
2018-08-19T13:08:23.441Z,28.20
2018-08-19T13:10:53.294Z,28.04
2018-08-19T13:13:22.648Z,27.96
2018-08-19T13:15:53.708Z,27.90
2018-08-19T13:18:45.121Z,27.94
2018-08-19T13:21:19.493Z,27.95
2018-08-19T13:23:49.779Z,28.00
2018-08-19T13:26:19.190Z,28.13
2018-08-19T13:28:54.734Z,28.38
2018-08-19T13:31:29.884Z,28.43
2018-08-19T13:34:00.646Z,28.40
2018-08-19T13:36:30.514Z,28.40
2018-08-19T13:38:59.886Z,28.29
2018-08-19T13:41:30.255Z,28.25
2018-08-19T13:43:59.642Z,28.15
2018-08-19T13:46:31.658Z,28.14
2018-08-19T13:49:01.040Z,28.18
2018-08-19T13:51:32.253Z,28.42
2018-08-19T13:54:02.162Z,28.57
2018-08-19T13:56:31.522Z,28.52
2018-08-19T13:59:01.102Z,28.23
2018-08-19T14:01:30.962Z,28.11
2018-08-19T14:04:01.266Z,28.11
2018-08-19T14:06:35.571Z,28.23
2018-08-19T14:09:05.779Z,28.43
2018-08-19T14:11:35.180Z,28.66
2018-08-19T14:14:08.043Z,29.00
2018-08-19T14:16:38.212Z,29.10
2018-08-19T14:19:09.035Z,28.99
2018-08-19T14:21:39.419Z,28.81
2018-08-19T14:24:10.018Z,28.71
2018-08-19T14:26:41.772Z,28.69
2018-08-19T14:29:12.407Z,28.58
2018-08-19T14:31:44.034Z,28.77
2018-08-19T14:34:14.383Z,29.04
2018-08-19T14:36:44.181Z,29.32
2018-08-19T14:39:15.126Z,29.57
2018-08-19T14:41:46.774Z,29.92
2018-08-19T14:44:16.159Z,30.28
2018-08-19T14:46:48.066Z,30.38
2018-08-19T14:49:18.582Z,30.67
2018-08-19T14:52:00.798Z,30.75
2018-08-19T14:54:31.175Z,30.86
2018-08-19T14:57:00.538Z,30.70
2018-08-19T14:59:30.410Z,30.84
2018-08-19T15:02:00.498Z,31.02
2018-08-19T15:04:32.526Z,31.14
2018-08-19T15:07:04.570Z,31.01
2018-08-19T15:09:35.768Z,31.02
2018-08-19T15:12:12.301Z,30.94
2018-08-19T15:14:48.567Z,31.17
2018-08-19T15:17:18.736Z,31.28
2018-08-19T15:19:51.708Z,31.46
2018-08-19T15:22:24.511Z,31.47
2018-08-19T15:24:54.634Z,31.47
2018-08-19T15:27:25.275Z,31.43
2018-08-19T15:29:55.738Z,31.24
2018-08-19T15:32:26.387Z,31.01
2018-08-19T15:34:55.841Z,30.83
2018-08-19T15:37:25.270Z,30.80
2018-08-19T15:39:57.907Z,30.87
2018-08-19T15:42:34.457Z,30.86
2018-08-19T15:45:03.810Z,30.70
2018-08-19T15:47:33.893Z,30.70
2018-08-19T15:52:53.153Z,30.37
2018-08-19T15:55:25.524Z,29.99
2018-08-19T15:57:57.255Z,29.99
2018-08-19T16:00:27.371Z,30.01
2018-08-19T16:03:24.396Z,30.01
2018-08-19T16:06:02.107Z,30.01
2018-08-19T16:08:31.552Z,30.06
2018-08-19T16:11:01.512Z,30.10
2018-08-19T16:13:35.518Z,30.12
2018-08-19T16:16:05.442Z,29.94
2018-08-19T16:19:11.859Z,29.79
2018-08-19T16:21:42.187Z,29.65
2018-08-19T16:24:12.546Z,29.45
2018-08-19T16:26:42.952Z,29.24
2018-08-19T16:29:14.195Z,29.19
2018-08-19T16:31:43.727Z,29.08
2018-08-19T16:34:17.015Z,28.96
2018-08-19T16:36:46.634Z,28.87
2018-08-19T16:39:18.053Z,28.72
2018-08-19T16:41:47.626Z,28.63
2018-08-19T16:44:17.149Z,28.53
2018-08-19T16:46:47.102Z,28.46
2018-08-19T16:49:16.566Z,28.38
2018-08-19T16:51:46.061Z,28.26
2018-08-19T16:54:16.227Z,28.14
2018-08-19T16:56:45.651Z,28.06
2018-08-19T16:59:16.479Z,27.95
2018-08-19T17:01:49.016Z,27.85
2018-08-19T17:04:21.085Z,27.70
2018-08-19T17:06:52.023Z,27.60
2018-08-19T17:09:22.629Z,27.49
2018-08-19T17:11:52.306Z,27.28
2018-08-19T17:14:24.853Z,27.14
2018-08-19T17:17:02.347Z,27.10
2018-08-19T17:19:35.702Z,27.11
2018-08-19T17:22:09.526Z,27.04
2018-08-19T17:24:40.347Z,26.98
2018-08-19T17:27:12.207Z,26.87
2018-08-19T17:29:43.044Z,26.78
2018-08-19T17:32:17.292Z,26.80
2018-08-19T17:34:47.521Z,26.85
2018-08-19T17:37:19.785Z,26.70
2018-08-19T17:39:51.703Z,26.48
2018-08-19T17:42:22.669Z,26.37
2018-08-19T17:44:52.795Z,26.29
2018-08-19T17:47:26.145Z,26.05
2018-08-19T17:49:55.679Z,25.82
2018-08-19T17:52:26.387Z,25.64
2018-08-19T17:54:56.891Z,25.45
2018-08-19T17:57:28.542Z,25.25
2018-08-19T18:00:00.745Z,25.09
2018-08-19T18:02:31.892Z,24.94
2018-08-19T18:05:02.784Z,24.83
2018-08-19T18:07:33.164Z,24.73
2018-08-19T18:10:09.866Z,24.58
2018-08-19T18:12:39.818Z,24.40
2018-08-19T18:15:12.406Z,24.29
2018-08-19T18:17:48.396Z,24.21
2018-08-19T18:20:50.438Z,24.13
2018-08-19T18:23:32.557Z,24.00
2018-08-19T18:26:02.101Z,23.84
2018-08-19T18:28:58.804Z,23.71
2018-08-19T18:31:31.541Z,23.54
2018-08-19T18:34:01.649Z,23.44
2018-08-19T18:36:35.649Z,23.33
2018-08-19T18:39:09.166Z,23.24
2018-08-19T18:41:40.613Z,23.16
2018-08-19T18:44:12.910Z,23.04
2018-08-19T18:46:43.369Z,22.94
2018-08-19T18:49:14.481Z,22.86
2018-08-19T18:51:52.429Z,22.78
2018-08-19T18:54:32.720Z,22.67
2018-08-19T18:57:04.275Z,22.56
2018-08-19T18:59:36.555Z,22.49
2018-08-19T19:02:05.989Z,22.42
2018-08-19T19:04:35.434Z,22.33
2018-08-19T19:07:06.154Z,22.27
2018-08-19T19:09:48.883Z,22.19
2018-08-19T19:12:21.600Z,22.13
2018-08-19T19:14:52.066Z,22.05
2018-08-19T19:17:24.390Z,21.96
2018-08-19T19:19:53.962Z,21.86
2018-08-19T19:22:25.103Z,21.78
2018-08-19T19:24:56.710Z,21.68
2018-08-19T19:27:26.470Z,21.61
2018-08-19T19:30:00.791Z,21.54
2018-08-19T19:32:30.250Z,21.44
2018-08-19T19:35:21.167Z,21.38
2018-08-19T19:37:50.560Z,21.28
2018-08-19T19:40:24.627Z,21.23
2018-08-19T19:42:54.773Z,21.18
2018-08-19T19:45:25.417Z,21.10
2018-08-19T19:47:54.890Z,21.02
2018-08-19T19:50:24.441Z,20.93
2018-08-19T19:52:59.429Z,20.88
2018-08-19T19:55:29.958Z,20.75
2018-08-19T19:58:02.690Z,20.64
2018-08-19T20:01:39.288Z,20.60
2018-08-19T20:04:09.138Z,20.53
2018-08-19T20:06:49.669Z,20.49
2018-08-19T20:09:22.953Z,20.52
2018-08-19T20:14:29.892Z,20.45
2018-08-19T20:17:03.391Z,20.41
2018-08-19T20:19:33.503Z,20.36
2018-08-19T20:22:03.833Z,20.33
2018-08-19T20:24:34.808Z,20.28
2018-08-19T20:27:05.475Z,20.20
2018-08-19T20:29:36.419Z,20.15
2018-08-19T20:32:10.222Z,20.08
2018-08-19T20:34:45.420Z,19.99
2018-08-19T20:37:14.991Z,19.89
2018-08-19T20:39:45.968Z,19.85
2018-08-19T20:42:20.762Z,19.77
2018-08-19T20:44:50.304Z,19.72
2018-08-19T20:47:23.639Z,19.67
2018-08-19T20:49:55.306Z,19.62
2018-08-19T20:52:34.262Z,19.55
2018-08-19T20:55:05.312Z,19.52
2018-08-19T20:57:38.801Z,19.45
2018-08-19T21:00:10.293Z,19.39
2018-08-19T21:02:40.416Z,19.34
2018-08-19T21:05:10.980Z,19.30
2018-08-19T21:07:47.915Z,19.27
2018-08-19T21:10:22.841Z,19.21
2018-08-19T21:12:54.453Z,19.17
2018-08-19T21:15:28.339Z,19.14
2018-08-19T21:17:57.742Z,19.09
2018-08-19T21:20:27.967Z,19.05
2018-08-19T21:22:58.308Z,19.04
2018-08-19T21:25:28.756Z,19.02
2018-08-19T21:28:00.227Z,18.98
2018-08-19T21:30:33.819Z,18.93
2018-08-19T21:33:05.722Z,18.87
2018-08-19T21:36:38.466Z,18.85
2018-08-19T21:39:10.353Z,18.82
2018-08-19T21:41:49.504Z,18.80
2018-08-19T21:44:21.080Z,18.77
2018-08-19T21:46:51.826Z,18.71
2018-08-19T21:49:22.287Z,18.64
2018-08-19T21:51:53.308Z,18.57
2018-08-19T21:54:25.541Z,18.53
2018-08-19T21:56:56.847Z,18.52
2018-08-19T21:59:30.391Z,18.51
2018-08-19T22:02:05.140Z,18.50
2018-08-19T22:04:34.561Z,18.47
2018-08-19T22:07:05.319Z,18.39
2018-08-19T22:09:37.474Z,18.29
2018-08-19T22:12:08.806Z,18.22
2018-08-19T22:14:40.346Z,18.19
2018-08-19T22:17:10.837Z,18.14
2018-08-19T22:19:41.327Z,18.09
2018-08-19T22:22:12.278Z,18.03
2018-08-19T22:24:42.606Z,17.97
2018-08-19T22:27:19.635Z,17.98
2018-08-19T22:29:51.471Z,17.97
2018-08-19T22:32:22.139Z,17.92
2018-08-19T22:37:26.824Z,17.88
2018-08-19T22:39:58.556Z,17.85
2018-08-19T22:42:28.634Z,17.83
2018-08-19T22:44:59.587Z,17.78
2018-08-19T22:47:33.136Z,17.76
2018-08-19T22:50:03.555Z,17.72
2018-08-19T22:52:33.686Z,17.69
2018-08-19T22:55:05.242Z,17.65
2018-08-19T22:58:10.647Z,17.61
2018-08-19T23:00:40.094Z,17.58
2018-08-19T23:03:13.831Z,17.55
2018-08-19T23:05:46.319Z,17.53
2018-08-19T23:08:19.967Z,17.47
2018-08-19T23:10:49.406Z,17.45
2018-08-19T23:13:35.191Z,17.44
2018-08-19T23:16:11.145Z,17.42
2018-08-19T23:18:43.350Z,17.39
2018-08-19T23:21:13.845Z,17.37
2018-08-19T23:23:43.745Z,17.39
2018-08-19T23:26:13.245Z,17.33
2018-08-19T23:28:43.248Z,17.28
2018-08-19T23:31:12.708Z,17.24
2018-08-19T23:33:42.547Z,17.23
2018-08-19T23:36:12.922Z,17.17
2018-08-19T23:38:42.323Z,17.14
2018-08-19T23:41:11.714Z,17.13
2018-08-19T23:43:42.298Z,17.14
2018-08-19T23:46:13.377Z,17.14
2018-08-19T23:48:43.536Z,17.10
2018-08-19T23:51:15.159Z,17.12
2018-08-19T23:53:44.569Z,17.12
2018-08-19T23:56:14.331Z,17.10
2018-08-19T23:58:46.672Z,17.06
